createdAt,value
2019-02-20T00:01:06.378Z,38.80
2019-02-20T00:03:34.887Z,40.97
2019-02-20T00:06:04.680Z,41.50
2019-02-20T00:08:33.307Z,38.63
2019-02-20T00:11:01.929Z,36.10
2019-02-20T00:13:30.447Z,36.00
2019-02-20T00:15:58.933Z,34.50
2019-02-20T00:18:27.558Z,34.77
2019-02-20T00:20:56.239Z,33.55
2019-02-20T00:23:24.785Z,33.37
2019-02-20T00:25:53.429Z,33.17
2019-02-20T00:28:22.066Z,35.77
2019-02-20T00:30:50.731Z,34.60
2019-02-20T00:33:19.341Z,33.08
2019-02-20T00:35:48.116Z,32.53
2019-02-20T00:38:16.677Z,34.30
2019-02-20T00:40:45.311Z,34.67
2019-02-20T00:43:14.138Z,34.17
2019-02-20T00:45:44.398Z,32.53
2019-02-20T00:48:26.634Z,31.90
2019-02-20T00:50:59.765Z,32.07
2019-02-20T00:53:33.031Z,32.23
2019-02-20T00:56:01.641Z,32.30
2019-02-20T00:58:30.121Z,32.27
2019-02-20T01:00:58.656Z,34.90
2019-02-20T01:03:27.264Z,34.50
2019-02-20T01:05:55.832Z,36.67
2019-02-20T01:08:24.777Z,34.33
2019-02-20T01:10:53.428Z,35.17
2019-02-20T01:13:21.908Z,34.03
2019-02-20T01:15:50.438Z,34.37
2019-02-20T01:18:19.068Z,34.17
2019-02-20T01:20:47.779Z,34.73
2019-02-20T01:23:16.484Z,34.43
2019-02-20T01:25:44.977Z,35.73
2019-02-20T01:28:13.607Z,34.17
2019-02-20T01:30:42.548Z,34.17
2019-02-20T01:33:11.036Z,34.07
2019-02-20T01:35:39.530Z,34.83
2019-02-20T01:38:09.195Z,36.50
2019-02-20T01:40:37.825Z,34.27
2019-02-20T01:43:06.433Z,36.53
2019-02-20T01:45:35.096Z,37.20
2019-02-20T01:48:03.658Z,37.47
2019-02-20T01:50:32.142Z,40.47
2019-02-20T01:53:10.087Z,40.63
2019-02-20T01:55:31.170Z,38.43
2019-02-20T01:57:59.729Z,40.50
2019-02-20T02:00:28.529Z,38.77
2019-02-20T02:02:57.170Z,39.43
2019-02-20T02:05:25.801Z,35.90
2019-02-20T02:07:54.414Z,48.43
2019-02-20T02:10:23.048Z,35.33
2019-02-20T02:12:51.674Z,35.83
2019-02-20T02:15:20.850Z,37.33
2019-02-20T02:17:52.284Z,36.77
2019-02-20T02:20:20.766Z,37.00
2019-02-20T02:22:49.416Z,36.43
2019-02-20T02:25:18.002Z,35.63
2019-02-20T02:27:46.625Z,35.13
2019-02-20T02:30:15.341Z,29.90
2019-02-20T02:32:44.017Z,27.73
2019-02-20T02:35:12.580Z,27.30
2019-02-20T02:37:41.225Z,28.30
2019-02-20T02:40:09.869Z,27.47
2019-02-20T02:42:38.388Z,28.43
2019-02-20T02:45:07.352Z,29.70
2019-02-20T02:47:36.011Z,30.80
2019-02-20T02:50:06.042Z,29.30
2019-02-20T02:52:34.526Z,28.37
2019-02-20T02:55:03.117Z,28.27
2019-02-20T02:57:31.746Z,29.43
2019-02-20T03:00:00.436Z,29.90
2019-02-20T03:02:28.958Z,32.00
2019-02-20T03:04:57.592Z,33.10
2019-02-20T03:07:26.169Z,27.90
2019-02-20T03:09:54.886Z,29.00
2019-02-20T03:12:23.516Z,28.73
2019-02-20T03:14:52.136Z,28.60
2019-02-20T03:17:20.721Z,28.77
2019-02-20T03:19:49.279Z,28.37
2019-02-20T03:22:17.925Z,29.80
2019-02-20T03:24:46.661Z,31.20
2019-02-20T03:27:15.163Z,32.23
2019-02-20T03:29:43.719Z,32.67
2019-02-20T03:32:12.440Z,33.33
2019-02-20T03:34:41.065Z,31.77
2019-02-20T03:37:09.583Z,30.67
2019-02-20T03:39:54.197Z,30.93
2019-02-20T03:42:22.873Z,24.10
2019-02-20T03:44:51.365Z,21.43
2019-02-20T03:47:20.331Z,23.60
2019-02-20T03:49:49.042Z,25.83
2019-02-20T03:52:17.603Z,29.33
2019-02-20T03:54:46.162Z,28.57
2019-02-20T03:57:15.050Z,29.80
2019-02-20T03:59:43.691Z,29.37
2019-02-20T04:02:12.292Z,31.77
2019-02-20T04:04:40.810Z,32.20
2019-02-20T04:07:09.442Z,32.53
2019-02-20T04:09:38.074Z,32.53
2019-02-20T04:12:12.066Z,32.13
2019-02-20T04:14:40.686Z,32.50
2019-02-20T04:17:09.322Z,32.40
2019-02-20T04:19:37.962Z,33.23
2019-02-20T04:22:06.450Z,32.00
2019-02-20T04:24:35.000Z,27.77
2019-02-20T04:27:03.643Z,27.37
2019-02-20T04:29:32.359Z,25.57
2019-02-20T04:32:00.893Z,25.40
2019-02-20T04:34:29.445Z,51.20
2019-02-20T04:36:58.076Z,54.43
2019-02-20T04:39:26.736Z,49.13
2019-02-20T04:41:55.298Z,43.90
2019-02-20T04:44:23.786Z,46.03
2019-02-20T04:46:52.406Z,46.83
2019-02-20T04:49:21.053Z,47.40
2019-02-20T04:51:49.694Z,46.33
2019-02-20T04:54:18.369Z,41.10
2019-02-20T04:56:47.060Z,44.10
2019-02-20T04:59:15.694Z,44.43
2019-02-20T05:01:44.460Z,47.43
2019-02-20T05:04:13.084Z,48.40
2019-02-20T05:06:41.638Z,45.77
2019-02-20T05:09:10.313Z,45.20
2019-02-20T05:11:38.937Z,42.70
2019-02-20T05:14:07.580Z,41.00
2019-02-20T05:16:36.373Z,40.67
2019-02-20T05:19:04.926Z,33.50
2019-02-20T05:21:33.577Z,33.30
2019-02-20T05:24:02.230Z,32.27
2019-02-20T05:26:30.722Z,36.93
2019-02-20T05:29:02.003Z,37.50
2019-02-20T05:31:30.657Z,41.40
2019-02-20T05:33:59.291Z,39.43
2019-02-20T05:36:27.862Z,39.77
2019-02-20T05:38:56.592Z,37.43
2019-02-20T05:41:25.208Z,34.97
2019-02-20T05:43:53.707Z,34.07
2019-02-20T05:46:22.392Z,37.30
2019-02-20T05:48:51.010Z,38.40
2019-02-20T05:51:19.571Z,37.48
2019-02-20T05:53:48.266Z,35.30
2019-02-20T05:56:16.922Z,36.38
2019-02-20T05:58:45.559Z,36.13
2019-02-20T06:01:14.087Z,36.93
2019-02-20T06:03:42.593Z,35.92
2019-02-20T06:06:11.210Z,34.23
2019-02-20T06:08:39.878Z,34.90
2019-02-20T06:11:14.628Z,31.33
2019-02-20T06:13:38.729Z,31.45
2019-02-20T06:16:07.413Z,31.73
2019-02-20T06:18:36.046Z,29.00
2019-02-20T06:21:04.637Z,44.65
2019-02-20T06:23:33.289Z,28.52
2019-02-20T06:26:01.776Z,33.28
2019-02-20T06:28:30.272Z,25.15
2019-02-20T06:30:58.987Z,40.28
2019-02-20T06:33:27.631Z,37.73
2019-02-20T06:35:56.202Z,31.35
2019-02-20T06:38:24.928Z,29.92
2019-02-20T06:40:53.553Z,31.42
2019-02-20T06:43:22.174Z,32.08
2019-02-20T06:45:53.439Z,27.62
2019-02-20T06:48:21.926Z,30.62
2019-02-20T06:50:50.619Z,32.08
2019-02-20T06:53:19.400Z,32.58
2019-02-20T06:55:47.908Z,32.33
2019-02-20T06:58:16.448Z,33.33
2019-02-20T07:00:45.508Z,34.15
2019-02-20T07:03:14.140Z,36.95
2019-02-20T07:05:42.720Z,36.20
2019-02-20T07:08:14.302Z,34.35
2019-02-20T07:11:11.305Z,31.45
2019-02-20T07:13:54.794Z,34.13
2019-02-20T07:16:57.929Z,31.02
2019-02-20T07:19:41.572Z,30.45
2019-02-20T07:22:29.766Z,34.40
2019-02-20T07:25:03.345Z,31.80
2019-02-20T07:27:59.787Z,31.73
2019-02-20T07:30:28.391Z,34.15
2019-02-20T07:32:57.027Z,35.90
2019-02-20T07:35:25.671Z,34.53
2019-02-20T07:37:54.218Z,32.73
2019-02-20T07:40:22.803Z,33.08
2019-02-20T07:42:51.440Z,37.80
2019-02-20T07:45:19.962Z,32.70
2019-02-20T07:47:48.608Z,32.58
2019-02-20T07:50:17.440Z,32.48
2019-02-20T07:52:46.118Z,34.05
2019-02-20T07:55:14.757Z,33.25
2019-02-20T07:57:43.455Z,31.80
2019-02-20T08:00:14.465Z,33.67
2019-02-20T08:02:43.032Z,34.50
2019-02-20T08:05:11.782Z,34.85
2019-02-20T08:07:40.679Z,35.13
2019-02-20T08:10:11.200Z,34.75
2019-02-20T08:12:39.698Z,32.75
2019-02-20T08:15:10.557Z,33.78
2019-02-20T08:17:39.178Z,36.00
2019-02-20T08:20:09.805Z,34.65
2019-02-20T08:22:38.422Z,35.83
2019-02-20T08:25:07.753Z,35.20
2019-02-20T08:27:36.452Z,35.78
2019-02-20T08:30:08.429Z,34.45
2019-02-20T08:32:37.100Z,33.92
2019-02-20T08:35:07.628Z,35.85
2019-02-20T08:37:36.295Z,34.08
2019-02-20T08:40:07.569Z,33.90
2019-02-20T08:42:36.222Z,35.20
2019-02-20T08:45:05.953Z,33.73
2019-02-20T08:47:34.507Z,34.45
2019-02-20T08:50:02.992Z,35.20
2019-02-20T08:52:31.667Z,36.03
2019-02-20T08:55:00.352Z,35.28
2019-02-20T08:57:28.880Z,34.23
2019-02-20T08:59:57.387Z,35.95
2019-02-20T09:02:26.098Z,35.98
2019-02-20T09:04:54.896Z,36.05
2019-02-20T09:07:23.569Z,38.02
2019-02-20T09:09:52.247Z,40.50
2019-02-20T09:12:20.741Z,37.23
2019-02-20T09:14:49.242Z,34.80
2019-02-20T09:17:17.881Z,38.55
2019-02-20T09:19:46.526Z,36.03
2019-02-20T09:22:15.110Z,38.78
2019-02-20T09:24:43.598Z,39.73
2019-02-20T09:27:12.225Z,38.92
2019-02-20T09:29:40.906Z,37.98
2019-02-20T09:32:09.470Z,39.95
2019-02-20T09:34:38.035Z,41.37
2019-02-20T09:37:06.706Z,41.00
2019-02-20T09:39:36.849Z,37.95
2019-02-20T09:42:07.003Z,25.50
2019-02-20T09:44:38.731Z,29.80
2019-02-20T09:47:07.352Z,23.60
2019-02-20T09:49:35.983Z,22.40
2019-02-20T09:52:04.543Z,17.67
2019-02-20T09:54:33.025Z,10.85
2019-02-20T09:57:01.772Z,10.43
2019-02-20T09:59:30.382Z,12.93
2019-02-20T10:01:58.924Z,10.55
2019-02-20T10:04:27.527Z,7.83
2019-02-20T10:06:56.161Z,9.35
2019-02-20T10:09:24.799Z,7.62
2019-02-20T10:11:53.453Z,8.25
2019-02-20T10:14:22.031Z,8.28
2019-02-20T10:16:50.662Z,7.50
2019-02-20T10:19:19.506Z,10.13
2019-02-20T10:21:48.015Z,9.93
2019-02-20T10:24:16.661Z,9.23
2019-02-20T10:26:45.253Z,8.78
2019-02-20T10:29:13.756Z,10.58
2019-02-20T10:31:42.384Z,9.80
2019-02-20T10:34:11.319Z,9.68
2019-02-20T10:36:39.837Z,9.30
2019-02-20T10:39:08.321Z,10.18
2019-02-20T10:41:36.990Z,9.85
2019-02-20T10:44:05.632Z,8.48
2019-02-20T10:46:40.186Z,8.50
2019-02-20T10:49:08.847Z,9.18
2019-02-20T10:51:37.482Z,8.18
2019-02-20T10:54:06.111Z,9.10
2019-02-20T10:56:34.699Z,9.93
2019-02-20T10:59:03.327Z,9.95
2019-02-20T11:01:31.963Z,11.65
2019-02-20T11:04:00.646Z,9.10
2019-02-20T11:06:29.309Z,9.93
2019-02-20T11:08:57.948Z,8.88
2019-02-20T11:11:26.474Z,9.48
2019-02-20T11:13:55.034Z,8.90
2019-02-20T11:16:23.668Z,9.55
2019-02-20T11:18:52.325Z,9.23
2019-02-20T11:21:20.890Z,8.55
2019-02-20T11:23:49.455Z,7.12
2019-02-20T11:26:18.781Z,9.18
2019-02-20T11:28:47.516Z,8.23
2019-02-20T11:31:16.014Z,8.75
2019-02-20T11:33:44.610Z,7.85
2019-02-20T11:36:13.240Z,6.75
2019-02-20T11:38:41.892Z,8.40
2019-02-20T11:41:10.563Z,6.62
2019-02-20T11:43:39.194Z,8.80
2019-02-20T11:46:07.780Z,8.08
2019-02-20T11:48:36.267Z,7.05
2019-02-20T11:51:04.887Z,5.12
2019-02-20T11:53:37.186Z,7.40
2019-02-20T11:56:03.847Z,8.30
2019-02-20T11:58:32.334Z,10.03
2019-02-20T12:01:01.034Z,9.28
2019-02-20T12:03:29.819Z,7.83
2019-02-20T12:05:58.309Z,7.62
2019-02-20T12:08:26.789Z,8.20
2019-02-20T12:10:55.458Z,7.80
2019-02-20T12:13:24.092Z,8.38
2019-02-20T12:15:52.653Z,8.78
2019-02-20T12:18:21.183Z,9.25
2019-02-20T12:20:49.807Z,8.83
2019-02-20T12:23:18.363Z,8.68
2019-02-20T12:25:47.276Z,9.25
2019-02-20T12:28:15.925Z,9.03
2019-02-20T12:30:44.474Z,9.98
2019-02-20T12:33:13.632Z,8.78
2019-02-20T12:35:42.365Z,9.35
2019-02-20T12:38:11.168Z,14.70
2019-02-20T12:40:39.764Z,10.60
2019-02-20T12:43:08.324Z,8.50
2019-02-20T12:45:36.953Z,10.03
2019-02-20T12:48:05.577Z,10.75
2019-02-20T12:50:34.157Z,10.65
2019-02-20T12:53:02.677Z,7.83
2019-02-20T12:55:31.300Z,8.43
2019-02-20T12:58:00.022Z,6.95
2019-02-20T13:00:28.789Z,7.35
2019-02-20T13:02:57.509Z,7.87
2019-02-20T13:05:26.078Z,7.75
2019-02-20T13:07:54.671Z,8.98
2019-02-20T13:10:23.303Z,8.53
2019-02-20T13:12:51.933Z,8.18
2019-02-20T13:15:20.675Z,7.75
2019-02-20T13:17:49.224Z,7.22
2019-02-20T13:20:17.861Z,6.17
2019-02-20T13:22:46.721Z,6.70
2019-02-20T13:25:15.347Z,6.75
2019-02-20T13:27:43.952Z,7.45
2019-02-20T13:30:14.318Z,7.10
2019-02-20T13:32:43.536Z,7.05
2019-02-20T13:35:12.259Z,6.62
2019-02-20T13:37:40.784Z,6.22
2019-02-20T13:40:11.011Z,7.12
2019-02-20T13:42:39.502Z,7.05
2019-02-20T13:45:09.180Z,7.22
2019-02-20T13:47:37.821Z,6.53
2019-02-20T13:50:08.857Z,7.28
2019-02-20T13:52:37.521Z,7.22
2019-02-20T13:55:06.461Z,7.58
2019-02-20T13:57:35.166Z,6.92
2019-02-20T14:00:04.028Z,6.78
2019-02-20T14:02:32.606Z,7.67
2019-02-20T14:05:01.303Z,7.60
2019-02-20T14:07:30.213Z,9.10
2019-02-20T14:09:58.985Z,8.45
2019-02-20T14:12:27.542Z,9.75
2019-02-20T14:14:56.218Z,11.70
2019-02-20T14:17:26.888Z,11.73
2019-02-20T14:19:55.149Z,12.85
2019-02-20T14:22:24.081Z,11.53
2019-02-20T14:24:52.594Z,11.38
2019-02-20T14:27:21.248Z,11.93
2019-02-20T14:29:49.924Z,12.37
2019-02-20T14:32:18.589Z,12.68
2019-02-20T14:34:47.082Z,12.00
2019-02-20T14:37:15.605Z,11.83
2019-02-20T14:39:44.243Z,12.58
2019-02-20T14:42:13.257Z,12.37
2019-02-20T14:44:41.800Z,12.88
2019-02-20T14:47:10.488Z,13.75
2019-02-20T14:49:39.126Z,14.83
2019-02-20T14:52:07.972Z,13.93
2019-02-20T14:54:36.460Z,14.28
2019-02-20T14:57:05.100Z,14.20
2019-02-20T14:59:34.182Z,14.00
2019-02-20T15:02:02.809Z,13.65
2019-02-20T15:04:31.299Z,13.98
2019-02-20T15:06:59.897Z,12.93
2019-02-20T15:09:28.521Z,12.73
2019-02-20T15:11:57.162Z,12.73
2019-02-20T15:14:26.374Z,12.98
2019-02-20T15:16:54.934Z,12.78
2019-02-20T15:19:23.559Z,13.10
2019-02-20T15:21:52.234Z,12.85
2019-02-20T15:24:20.819Z,13.10
2019-02-20T15:26:49.391Z,12.53
2019-02-20T15:29:18.086Z,13.80
2019-02-20T15:31:46.925Z,15.00
2019-02-20T15:34:15.513Z,15.65
2019-02-20T15:36:44.047Z,15.40
2019-02-20T15:39:12.698Z,14.53
2019-02-20T15:41:41.299Z,15.68
2019-02-20T15:44:09.984Z,16.48
2019-02-20T15:46:38.612Z,18.55
2019-02-20T15:49:07.455Z,14.70
2019-02-20T15:51:36.371Z,16.05
2019-02-20T15:54:05.036Z,15.95
2019-02-20T15:56:33.684Z,13.95
2019-02-20T15:59:02.308Z,14.25
2019-02-20T16:01:30.884Z,13.90
2019-02-20T16:03:59.538Z,16.15
2019-02-20T16:06:28.187Z,14.38
2019-02-20T16:08:56.687Z,13.28
2019-02-20T16:11:25.251Z,14.10
2019-02-20T16:13:54.190Z,14.10
2019-02-20T16:16:22.817Z,13.95
2019-02-20T16:18:51.472Z,13.85
2019-02-20T16:21:20.430Z,15.15
2019-02-20T16:23:48.930Z,15.85
2019-02-20T16:26:17.493Z,15.65
2019-02-20T16:28:46.176Z,17.07
2019-02-20T16:31:14.813Z,16.73
2019-02-20T16:33:43.467Z,16.70
2019-02-20T16:36:12.051Z,17.00
2019-02-20T16:38:40.948Z,20.45
2019-02-20T16:41:09.579Z,19.98
2019-02-20T16:43:38.190Z,21.52
2019-02-20T16:46:06.824Z,22.62
2019-02-20T16:48:35.440Z,20.15
2019-02-20T16:51:04.114Z,24.63
2019-02-20T16:53:32.675Z,21.82
2019-02-20T16:56:01.413Z,24.27
2019-02-20T16:58:30.324Z,24.77
2019-02-20T17:00:59.031Z,23.65
2019-02-20T17:03:27.668Z,25.12
2019-02-20T17:05:56.347Z,23.02
2019-02-20T17:08:24.897Z,24.15
2019-02-20T17:10:53.993Z,25.70
2019-02-20T17:13:22.838Z,26.73
2019-02-20T17:15:51.786Z,26.60
2019-02-20T17:18:20.337Z,24.65
2019-02-20T17:20:49.101Z,22.05
2019-02-20T17:23:17.741Z,22.27
2019-02-20T17:25:46.381Z,21.17
2019-02-20T17:28:15.659Z,20.32
2019-02-20T17:30:44.282Z,22.22
2019-02-20T17:33:12.910Z,19.55
2019-02-20T17:35:41.579Z,21.42
2019-02-20T17:38:10.210Z,22.42
2019-02-20T17:40:38.846Z,21.55
2019-02-20T17:43:07.961Z,24.05
2019-02-20T17:45:36.454Z,26.40
2019-02-20T17:48:05.106Z,27.20
2019-02-20T17:50:33.766Z,28.17
2019-02-20T17:53:02.398Z,29.35
2019-02-20T17:55:31.045Z,29.52
2019-02-20T17:57:59.882Z,31.57
2019-02-20T18:00:32.407Z,28.35
2019-02-20T18:03:01.045Z,24.45
2019-02-20T18:05:29.639Z,22.77
2019-02-20T18:07:58.257Z,19.40
2019-02-20T18:10:26.877Z,19.25
2019-02-20T18:12:55.494Z,20.32
2019-02-20T18:15:24.052Z,23.00
2019-02-20T18:17:52.686Z,24.07
2019-02-20T18:20:21.291Z,24.87
2019-02-20T18:22:49.942Z,27.27
2019-02-20T18:25:18.575Z,28.17
2019-02-20T18:27:47.178Z,28.12
2019-02-20T18:30:16.609Z,28.77
2019-02-20T18:32:45.326Z,27.45
2019-02-20T18:35:18.737Z,28.98
2019-02-20T18:37:47.392Z,26.45
2019-02-20T18:40:17.146Z,24.77
2019-02-20T18:42:45.991Z,23.27
2019-02-20T18:45:15.715Z,21.12
2019-02-20T18:47:44.468Z,20.80
2019-02-20T18:50:14.435Z,18.62
2019-02-20T18:52:43.055Z,16.73
2019-02-20T18:55:13.283Z,16.60
2019-02-20T18:57:42.075Z,15.70
2019-02-20T19:00:18.995Z,16.25
2019-02-20T19:02:47.670Z,14.65
2019-02-20T19:05:18.723Z,14.53
2019-02-20T19:07:46.751Z,14.75
2019-02-20T19:10:36.818Z,16.52
2019-02-20T19:13:38.191Z,15.10
2019-02-20T19:16:15.764Z,14.00
2019-02-20T19:19:02.366Z,15.78
2019-02-20T19:21:47.800Z,15.40
2019-02-20T19:24:22.361Z,15.25
2019-02-20T19:27:02.552Z,15.30
2019-02-20T19:29:34.078Z,15.53
2019-02-20T19:32:28.374Z,15.95
2019-02-20T19:35:16.346Z,15.40
2019-02-20T19:38:09.596Z,15.32
2019-02-20T19:41:13.163Z,15.90
2019-02-20T19:43:50.688Z,15.95
2019-02-20T19:46:50.970Z,17.85
2019-02-20T19:49:25.210Z,18.82
2019-02-20T19:52:19.616Z,17.25
2019-02-20T19:54:56.728Z,17.17
2019-02-20T19:57:36.902Z,16.50
2019-02-20T20:00:32.192Z,17.55
2019-02-20T20:03:29.608Z,16.45
2019-02-20T20:06:09.901Z,16.67
2019-02-20T20:08:41.464Z,17.62
2019-02-20T20:11:31.188Z,17.65
2019-02-20T20:14:34.964Z,18.10
2019-02-20T20:17:14.936Z,19.65
2019-02-20T20:20:01.482Z,18.48
2019-02-20T20:22:41.524Z,19.65
2019-02-20T20:25:19.046Z,18.17
2019-02-20T20:27:53.849Z,18.37
2019-02-20T20:30:42.147Z,17.70
2019-02-20T20:33:39.356Z,19.17
2019-02-20T20:36:16.884Z,16.15
2019-02-20T20:39:00.431Z,16.55
2019-02-20T20:41:37.661Z,17.20
2019-02-20T20:44:44.069Z,17.32
2019-02-20T20:47:47.314Z,16.65
2019-02-20T20:50:44.435Z,16.93
2019-02-20T20:53:24.782Z,16.62
2019-02-20T20:56:08.539Z,17.10
2019-02-20T20:58:40.088Z,16.93
2019-02-20T21:01:26.649Z,16.60
2019-02-20T21:04:20.432Z,17.17
2019-02-20T21:07:14.400Z,17.10
2019-02-20T21:09:55.197Z,19.90
2019-02-20T21:12:38.844Z,17.32
2019-02-20T21:15:19.646Z,17.20
2019-02-20T21:17:53.965Z,18.07
2019-02-20T21:20:44.033Z,18.35
2019-02-20T21:23:21.577Z,18.42
2019-02-20T21:26:05.656Z,17.27
2019-02-20T21:28:49.104Z,18.90
2019-02-20T21:31:37.410Z,20.00
2019-02-20T21:34:14.590Z,20.00
2019-02-20T21:36:46.167Z,20.77
2019-02-20T21:39:17.715Z,22.87
2019-02-20T21:41:58.612Z,23.27
2019-02-20T21:44:42.500Z,25.88
2019-02-20T21:47:40.110Z,28.10
2019-02-20T21:50:17.310Z,29.18
2019-02-20T21:52:54.920Z,28.07
2019-02-20T21:55:35.118Z,28.25
2019-02-20T21:58:18.755Z,28.38
2019-02-20T22:01:12.963Z,27.67
2019-02-20T22:04:02.721Z,23.98
2019-02-20T22:06:53.276Z,22.93
2019-02-20T22:09:42.985Z,24.70
2019-02-20T22:12:19.793Z,21.07
2019-02-20T22:15:12.052Z,19.75
2019-02-20T22:17:43.598Z,31.87
2019-02-20T22:20:18.011Z,22.48
2019-02-20T22:23:07.870Z,19.48
2019-02-20T22:25:57.099Z,20.68
2019-02-20T22:28:43.487Z,20.08
2019-02-20T22:31:39.377Z,21.27
2019-02-20T22:34:29.233Z,21.97
2019-02-20T22:37:03.977Z,21.68
2019-02-20T22:39:55.158Z,21.80
2019-02-20T22:42:26.792Z,20.97
2019-02-20T22:45:09.776Z,23.38
2019-02-20T22:47:57.687Z,22.42
2019-02-20T22:51:04.414Z,22.52
2019-02-20T22:53:41.704Z,22.58
2019-02-20T22:56:16.154Z,21.55
2019-02-20T22:58:50.363Z,17.10
2019-02-20T23:01:30.840Z,15.93
2019-02-20T23:04:02.417Z,18.95
2019-02-20T23:07:01.281Z,16.90
2019-02-20T23:09:44.954Z,15.60
2019-02-20T23:12:39.293Z,16.52
2019-02-20T23:15:07.889Z,15.43
2019-02-20T23:17:36.442Z,14.15
2019-02-20T23:20:07.668Z,15.65
2019-02-20T23:22:36.189Z,14.68
2019-02-20T23:25:06.016Z,14.43
2019-02-20T23:27:34.732Z,14.83
2019-02-20T23:30:12.555Z,14.45
2019-02-20T23:32:33.966Z,15.35
2019-02-20T23:35:02.701Z,15.43
2019-02-20T23:37:31.616Z,16.23
2019-02-20T23:40:00.307Z,16.12
2019-02-20T23:42:28.882Z,17.02
2019-02-20T23:44:57.544Z,15.72
2019-02-20T23:47:26.177Z,15.68
2019-02-20T23:49:56.547Z,16.35
2019-02-20T23:52:25.141Z,16.87
2019-02-20T23:54:53.776Z,17.35
2019-02-20T23:57:22.259Z,16.67
2019-02-20T23:59:50.808Z,16.23
